Time;durP1;ratioP1;P1;durP2;ratioP2;P2;SDS_P1;SDS_P2;PMS_P1;PMS_P2;Temp;Humidity;BMP_temperature;BMP_pressure;BME280_temperature;BME280_humidity;BME280_pressure;Samples;Min_cycle;Max_cycle;Signal;HPM_P1;HPM_P2
2022/03/29 18:15:13;;;;;;;4.13;1.95;;;16.50;48.40;;;;;;2280067;62;20360;-94
2022/03/29 18:17:49;;;;;;;4.05;2.25;;;16.40;49.10;;;;;;2268062;63;20174;-93
2022/03/29 18:20:16;;;;;;;3.25;2.13;;;16.50;49.20;;;;;;2264847;63;20363;-93
2022/03/29 18:22:42;;;;;;;3.45;2.08;;;16.50;49.50;;;;;;2273147;63;20167;-92
2022/03/29 18:25:09;;;;;;;3.50;1.90;;;16.50;50.10;;;;;;2272236;63;20247;-90
2022/03/29 18:27:36;;;;;;;5.18;2.08;;;16.50;50.50;;;;;;2271879;63;20237;-91
2022/03/29 18:30:04;;;;;;;7.18;2.15;;;16.50;50.90;;;;;;2272866;63;20794;-91
2022/03/29 18:32:30;;;;;;;3.55;2.05;;;16.60;51.30;;;;;;2273228;63;20222;-92
2022/03/29 18:34:56;;;;;;;2.92;1.80;;;16.60;51.50;;;;;;2272195;63;20768;-92
2022/03/29 18:37:22;;;;;;;4.85;2.13;;;16.60;51.50;;;;;;2275536;63;20355;-92
2022/03/29 18:39:48;;;;;;;2.30;2.10;;;16.70;51.40;;;;;;2274876;63;20174;-93
2022/03/29 18:42:14;;;;;;;4.90;1.60;;;16.70;51.40;;;;;;2273426;63;20752;-92
2022/03/29 18:44:42;;;;;;;3.42;1.65;;;16.80;51.40;;;;;;2265601;63;20259;-91
2022/03/29 18:47:07;;;;;;;3.60;2.20;;;16.80;51.40;;;;;;2262126;63;20227;-92
2022/03/29 18:49:33;;;;;;;2.33;1.55;;;16.80;51.20;;;;;;2265233;63;20360;-92
2022/03/29 18:51:59;;;;;;;5.28;2.55;;;16.80;51.10;;;;;;2259521;63;20315;-92
2022/03/29 18:54:34;;;;;;;3.28;1.92;;;16.90;51.10;;;;;;2259658;63;20231;-91
2022/03/29 18:57:00;;;;;;;2.00;1.42;;;17.00;51.00;;;;;;2258812;63;20232;-91
2022/03/29 18:59:26;;;;;;;4.05;2.10;;;17.00;50.70;;;;;;2258898;63;20826;-91
2022/03/29 19:02:00;;;;;;;2.55;1.50;;;17.10;50.60;;;;;;2251878;63;20289;-91
2022/03/29 19:04:27;;;;;;;3.35;2.13;;;17.10;50.50;;;;;;2258530;63;20254;-91
2022/03/29 19:06:54;;;;;;;2.13;1.60;;;17.20;50.40;;;;;;2252950;63;20463;-92
2022/03/29 19:09:20;;;;;;;6.28;2.15;;;17.20;50.20;;;;;;2251766;63;20283;-93
2022/03/29 19:11:46;;;;;;;4.20;1.60;;;17.20;50.10;;;;;;2261210;63;20378;-92
2022/03/29 19:14:12;;;;;;;2.22;1.48;;;17.30;50.00;;;;;;2259530;63;20196;-91
2022/03/29 19:16:39;;;;;;;3.35;1.58;;;17.30;50.50;;;;;;2259928;63;20261;-91
2022/03/29 19:19:10;;;;;;;2.63;1.38;;;17.40;49.80;;;;;;2261876;63;20180;-92
2022/03/29 19:21:36;;;;;;;2.28;1.50;;;17.40;49.60;;;;;;2261818;63;20275;-93
2022/03/29 19:24:04;;;;;;;3.63;1.58;;;17.40;49.40;;;;;;2254279;63;20416;-92
2022/03/29 19:26:30;;;;;;;2.65;1.73;;;17.50;49.30;;;;;;2247606;63;20222;-92
2022/03/29 19:28:57;;;;;;;2.63;2.03;;;17.50;49.30;;;;;;2254842;63;20208;-91
2022/03/29 19:31:28;;;;;;;3.28;1.73;;;17.50;49.20;;;;;;2253712;63;20234;-91
2022/03/29 19:33:54;;;;;;;2.80;1.73;;;17.60;49.20;;;;;;2247948;63;20205;-91
2022/03/29 19:36:20;;;;;;;1.92;1.50;;;17.60;49.10;;;;;;2253143;63;20270;-92
2022/03/29 19:39:32;;;;;;;2.20;1.25;;;17.60;49.00;;;;;;2255328;63;20237;-93
2022/03/29 19:42:01;;;;;;;3.85;1.63;;;17.70;49.60;;;;;;2242605;63;20331;-93
2022/03/29 19:44:29;;;;;;;4.40;1.98;;;17.80;49.50;;;;;;2237843;63;20343;-91
2022/03/29 19:46:55;;;;;;;1.95;1.58;;;;;;;;;;2249436;63;20299;-89
2022/03/29 19:49:21;;;;;;;1.95;1.40;;;;;;;;;;2259721;63;20245;-92
2022/03/29 19:51:48;;;;;;;2.85;1.85;;;;;;;;;;2255490;63;20203;-90
2022/03/29 19:54:14;;;;;;;1.80;1.55;;;;;;;;;;2247047;63;20244;-92
2022/03/29 19:56:41;;;;;;;4.22;1.52;;;;;;;;;;2241343;63;20328;-92
2022/03/29 19:59:10;;;;;;;4.57;2.95;;;18.20;48.80;;;;;;2251732;63;20318;-91
2022/03/29 20:01:39;;;;;;;5.83;3.03;;;18.30;49.40;;;;;;2261012;63;20274;-93
2022/03/29 20:04:05;;;;;;;6.82;3.40;;;18.30;49.20;;;;;;2245758;63;20232;-90
2022/03/29 20:06:31;;;;;;;9.38;3.67;;;18.40;48.60;;;;;;2243526;63;20220;-91
2022/03/29 20:08:57;;;;;;;7.22;3.30;;;18.40;47.90;;;;;;2253778;63;20693;-91
2022/03/29 20:11:23;;;;;;;6.53;3.22;;;18.40;47.60;;;;;;2255902;63;20231;-90
2022/03/29 20:13:49;;;;;;;5.70;3.13;;;18.40;47.20;;;;;;2254148;63;20211;-91
2022/03/29 20:16:16;;;;;;;6.25;3.63;;;18.40;46.80;;;;;;2254816;63;20269;-89
2022/03/29 20:18:43;;;;;;;8.30;3.60;;;18.30;46.60;;;;;;2254861;63;20243;-88
2022/03/29 20:21:11;;;;;;;4.97;3.22;;;18.30;46.40;;;;;;2257012;63;20306;-88
2022/03/29 20:23:37;;;;;;;9.20;3.47;;;18.30;46.20;;;;;;2255844;63;20248;-90
2022/03/29 20:26:03;;;;;;;5.38;3.47;;;18.20;46.10;;;;;;2256730;63;20428;-88
2022/03/29 20:28:29;;;;;;;6.15;3.50;;;18.20;46.00;;;;;;2249424;63;20214;-88
2022/03/29 20:30:55;;;;;;;7.28;3.47;;;18.20;45.90;;;;;;2256680;63;20244;-89
2022/03/29 20:33:21;;;;;;;6.25;3.72;;;18.10;45.80;;;;;;2254741;63;20892;-88
2022/03/29 20:35:47;;;;;;;6.35;3.67;;;18.10;45.60;;;;;;2253013;63;20315;-90
2022/03/29 20:38:14;;;;;;;6.93;3.80;;;18.10;45.60;;;;;;2256719;63;20408;-90
2022/03/29 20:40:41;;;;;;;6.75;3.90;;;18.00;45.40;;;;;;2265500;63;20272;-92
2022/03/29 20:43:10;;;;;;;7.95;3.90;;;18.00;45.30;;;;;;2256021;63;20248;-93
2022/03/29 20:45:36;;;;;;;6.93;3.83;;;17.90;45.40;;;;;;2257421;63;20212;-92
2022/03/29 20:48:03;;;;;;;8.35;3.85;;;17.90;45.50;;;;;;2249934;63;20353;-94
2022/03/29 20:50:29;;;;;;;6.90;3.85;;;17.80;45.30;;;;;;2253545;63;20235;-93
2022/03/29 20:52:55;;;;;;;6.53;3.78;;;17.80;45.30;;;;;;2257711;63;20702;-92
2022/03/29 20:55:28;;;;;;;6.32;4.15;;;17.70;45.30;;;;;;2258467;63;20216;-93
2022/03/29 20:57:54;;;;;;;5.22;3.80;;;17.60;45.30;;;;;;2256477;63;20326;-92
2022/03/29 21:00:20;;;;;;;7.03;3.63;;;17.60;45.30;;;;;;2255228;63;20220;-90
2022/03/29 21:02:46;;;;;;;7.80;3.53;;;17.50;45.30;;;;;;2253697;63;20365;-88
2022/03/29 21:05:12;;;;;;;8.13;3.90;;;17.50;45.40;;;;;;2256688;63;20251;-88
2022/03/29 21:07:38;;;;;;;6.35;3.80;;;17.40;45.40;;;;;;2248638;63;20224;-90
2022/03/29 21:10:04;;;;;;;7.60;3.72;;;17.40;45.50;;;;;;2253322;63;20276;-90
2022/03/29 21:12:30;;;;;;;6.28;3.60;;;17.30;45.50;;;;;;2256340;63;20309;-90
2022/03/29 21:14:56;;;;;;;8.07;3.92;;;17.30;45.60;;;;;;2249018;63;20248;-91
2022/03/29 21:17:22;;;;;;;5.43;3.70;;;17.20;45.60;;;;;;2245650;63;20194;-90
2022/03/29 21:19:48;;;;;;;6.40;3.20;;;17.20;45.70;;;;;;2254393;63;20201;-89
2022/03/29 21:22:20;;;;;;;5.32;3.30;;;17.10;45.70;;;;;;2255486;63;20245;-91
2022/03/29 21:24:46;;;;;;;7.88;3.40;;;17.10;45.80;;;;;;2256030;63;20263;-90
2022/03/29 21:27:12;;;;;;;5.90;3.17;;;17.00;45.80;;;;;;2247666;63;20602;-88
2022/03/29 21:29:38;;;;;;;5.28;3.20;;;17.00;45.90;;;;;;2254459;63;20289;-89
2022/03/29 21:32:05;;;;;;;6.50;3.13;;;16.90;45.90;;;;;;2257570;63;20212;-89
2022/03/29 21:34:32;;;;;;;5.18;3.30;;;16.90;46.00;;;;;;2254581;63;20698;-90
2022/03/29 21:36:57;;;;;;;7.10;3.28;;;16.80;46.00;;;;;;2254784;63;20231;-88
2022/03/29 21:39:24;;;;;;;5.90;3.25;;;16.80;46.80;;;;;;2259004;63;20841;-89
2022/03/29 21:41:49;;;;;;;5.75;3.38;;;16.70;46.10;;;;;;2254807;63;20379;-90
2022/03/29 21:44:15;;;;;;;5.15;3.42;;;16.70;46.20;;;;;;2258287;63;20215;-89
2022/03/29 21:46:42;;;;;;;7.93;3.67;;;16.60;46.30;;;;;;2246219;63;20385;-91
2022/03/29 21:49:08;;;;;;;4.85;3.30;;;16.60;46.30;;;;;;2255729;63;20272;-89
2022/03/29 21:51:33;;;;;;;5.38;3.40;;;16.50;46.50;;;;;;2255239;63;20204;-89
2022/03/29 21:54:00;;;;;;;6.38;3.20;;;16.50;46.50;;;;;;2256356;63;20289;-89
2022/03/29 21:56:26;;;;;;;6.28;3.30;;;16.40;46.60;;;;;;2258087;63;20607;-88
2022/03/29 21:58:52;;;;;;;7.10;3.60;;;16.40;46.60;;;;;;2257531;63;20330;-90
2022/03/29 22:01:17;;;;;;;4.97;3.03;;;16.30;46.80;;;;;;2256461;63;20367;-90
2022/03/29 22:03:43;;;;;;;5.55;3.15;;;16.30;46.80;;;;;;2253949;63;20204;-89
2022/03/29 22:06:09;;;;;;;4.85;3.13;;;16.20;46.80;;;;;;2259838;63;20227;-90
2022/03/29 22:08:35;;;;;;;6.47;3.38;;;16.20;46.80;;;;;;2254445;63;20223;-91
2022/03/29 22:11:01;;;;;;;6.07;3.80;;;16.10;46.70;;;;;;2252532;63;20211;-90
2022/03/29 22:13:27;;;;;;;5.45;3.25;;;16.10;46.70;;;;;;2255115;63;20369;-90
2022/03/29 22:15:52;;;;;;;5.03;3.30;;;16.00;47.00;;;;;;2248818;63;20211;-91
2022/03/29 22:18:18;;;;;;;5.15;3.28;;;16.00;47.10;;;;;;2253786;63;20144;-91
2022/03/29 22:20:44;;;;;;;7.47;3.58;;;15.90;47.10;;;;;;2256257;63;20220;-90
2022/03/29 22:23:15;;;;;;;4.80;3.50;;;15.90;47.20;;;;;;2249560;63;20361;-91
2022/03/29 22:25:40;;;;;;;4.32;3.38;;;15.90;47.30;;;;;;2257001;63;20284;-90
2022/03/29 22:28:06;;;;;;;5.78;3.13;;;15.80;47.40;;;;;;2258460;63;20203;-91
2022/03/29 22:30:33;;;;;;;3.83;2.83;;;15.80;47.50;;;;;;2255923;63;20294;-91
2022/03/29 22:32:59;;;;;;;3.95;3.17;;;15.70;47.50;;;;;;2254761;63;20237;-91
2022/03/29 22:35:26;;;;;;;3.08;2.70;;;15.70;47.60;;;;;;2255344;63;20173;-91
2022/03/29 22:37:56;;;;;;;5.03;3.10;;;15.70;47.70;;;;;;2256034;63;20228;-90
2022/03/29 22:40:22;;;;;;;4.95;2.80;;;15.70;48.50;;;;;;2254108;63;20250;-91
2022/03/29 22:42:48;;;;;;;4.05;2.83;;;15.60;47.80;;;;;;2256225;63;20297;-92
2022/03/29 22:45:14;;;;;;;4.72;3.00;;;15.60;47.90;;;;;;2247629;63;20745;-90
2022/03/29 22:47:40;;;;;;;4.03;2.85;;;15.60;47.90;;;;;;2258113;63;20720;-91
2022/03/29 22:50:07;;;;;;;4.13;2.90;;;15.50;47.90;;;;;;2258119;63;20264;-91
2022/03/29 22:52:34;;;;;;;4.82;2.97;;;15.60;48.00;;;;;;2257350;63;20223;-89
2022/03/29 22:55:05;;;;;;;5.05;3.15;;;15.50;48.00;;;;;;2254482;63;20261;-90
2022/03/29 22:57:32;;;;;;;3.50;2.72;;;15.50;48.00;;;;;;2257510;63;20240;-89
2022/03/29 22:59:57;;;;;;;4.05;2.95;;;15.50;48.10;;;;;;2258257;63;20208;-89
2022/03/29 23:02:24;;;;;;;3.95;2.90;;;15.40;48.10;;;;;;2257773;63;20278;-90
2022/03/29 23:04:50;;;;;;;4.10;2.67;;;15.40;48.10;;;;;;2256987;63;20257;-89
2022/03/29 23:07:17;;;;;;;4.03;2.80;;;15.40;48.10;;;;;;2259546;63;20236;-89
2022/03/29 23:09:43;;;;;;;4.70;3.10;;;15.40;48.20;;;;;;2259779;63;20297;-89
2022/03/29 23:12:10;;;;;;;4.05;3.08;;;15.40;48.20;;;;;;2252693;63;21096;-90
2022/03/29 23:14:37;;;;;;;4.00;2.85;;;15.30;48.10;;;;;;2257630;63;20236;-90
2022/03/29 23:17:04;;;;;;;4.20;3.00;;;15.30;48.20;;;;;;2260499;63;20248;-90
2022/03/29 23:19:34;;;;;;;5.07;2.85;;;15.30;48.20;;;;;;2259981;63;20270;-89
2022/03/29 23:22:00;;;;;;;4.10;2.97;;;15.30;48.20;;;;;;2256500;63;20288;-89
2022/03/29 23:24:30;;;;;;;4.22;2.70;;;15.30;48.20;;;;;;2259664;63;20596;-89
2022/03/29 23:26:57;;;;;;;3.30;3.00;;;15.20;48.20;;;;;;2255249;63;20272;-89
2022/03/29 23:29:24;;;;;;;3.88;2.88;;;15.20;48.20;;;;;;2260704;63;20219;-89
2022/03/29 23:31:50;;;;;;;3.40;2.92;;;15.20;48.30;;;;;;2260463;63;20867;-88
2022/03/29 23:34:16;;;;;;;2.80;2.55;;;15.20;48.20;;;;;;2258518;63;20208;-89
2022/03/29 23:36:42;;;;;;;4.05;2.70;;;15.20;48.30;;;;;;2257607;63;20230;-88
2022/03/29 23:39:09;;;;;;;4.95;2.72;;;15.20;48.30;;;;;;2257148;63;20261;-89
2022/03/29 23:41:37;;;;;;;3.80;2.83;;;15.20;48.30;;;;;;2259805;63;20240;-89
2022/03/29 23:44:04;;;;;;;3.30;2.47;;;15.10;48.30;;;;;;2250806;63;20681;-88
2022/03/29 23:46:30;;;;;;;4.15;2.80;;;15.10;48.30;;;;;;2251169;63;20339;-90
2022/03/29 23:48:56;;;;;;;3.22;2.47;;;15.10;48.40;;;;;;2257932;63;20604;-89
2022/03/29 23:51:22;;;;;;;4.47;2.97;;;15.10;48.30;;;;;;2257719;63;20231;-89
2022/03/29 23:53:48;;;;;;;4.93;2.85;;;15.10;48.30;;;;;;2257711;63;20216;-89
2022/03/29 23:56:16;;;;;;;3.00;2.60;;;15.00;48.30;;;;;;2260009;63;20207;-89
2022/03/29 23:58:42;;;;;;;3.90;2.80;;;15.00;48.40;;;;;;2259171;63;20349;-89
